Time;durP1;ratioP1;P1;durP2;ratioP2;P2;SDS_P1;SDS_P2;PMS_P1;PMS_P2;Temp;Humidity;BMP_temperature;BMP_pressure;BME280_temperature;BME280_humidity;BME280_pressure;Samples;Min_cycle;Max_cycle;Signal;HPM_P1;HPM_P2
2021/10/12 00:00:51;;;;;;;35.28;21.67;;;24.30;37.60;;;;;;6203252;28;83391;-70
2021/10/12 00:03:52;;;;;;;37.55;21.90;;;24.30;37.60;;;;;;6202749;28;82966;-72
2021/10/12 00:06:52;;;;;;;36.03;20.48;;;24.30;37.30;;;;;;6202052;28;83220;-72
2021/10/12 00:09:53;;;;;;;38.38;20.73;;;24.30;37.50;;;;;;6202984;28;83037;-72
2021/10/12 00:12:53;;;;;;;37.20;22.02;;;24.30;37.70;;;;;;6202636;28;83552;-73
2021/10/12 00:15:54;;;;;;;35.17;21.10;;;24.30;37.70;;;;;;6201973;28;83468;-73
2021/10/12 00:18:54;;;;;;;37.67;21.60;;;24.30;38.00;;;;;;6202204;28;83147;-72
2021/10/12 00:21:55;;;;;;;32.20;20.30;;;24.30;37.70;;;;;;6201910;28;83829;-71
2021/10/12 00:24:55;;;;;;;34.30;20.92;;;24.30;38.20;;;;;;6201983;28;85379;-70
2021/10/12 00:27:56;;;;;;;34.45;21.38;;;24.30;37.80;;;;;;6202683;28;83288;-70
2021/10/12 00:30:56;;;;;;;38.42;23.17;;;24.30;37.80;;;;;;6206918;28;83034;-71
2021/10/12 00:33:57;;;;;;;37.92;23.40;;;24.30;37.70;;;;;;6207348;28;82977;-71
2021/10/12 00:36:58;;;;;;;37.47;22.13;;;24.30;37.90;;;;;;6205940;28;82837;-72
2021/10/12 00:39:58;;;;;;;40.10;23.02;;;24.30;37.70;;;;;;6206590;28;83420;-71
2021/10/12 00:42:59;;;;;;;41.60;23.48;;;24.30;37.80;;;;;;6207249;28;83118;-70
2021/10/12 00:45:59;;;;;;;42.13;24.23;;;24.30;38.00;;;;;;6209948;28;83007;-71
2021/10/12 00:49:00;;;;;;;40.10;24.42;;;24.20;37.80;;;;;;6208923;28;83472;-71
2021/10/12 00:52:00;;;;;;;38.58;24.15;;;24.30;37.80;;;;;;6206126;28;83421;-72
2021/10/12 00:55:01;;;;;;;44.28;25.15;;;24.30;37.80;;;;;;6207193;28;83327;-71
2021/10/12 00:58:01;;;;;;;44.60;25.20;;;24.30;37.80;;;;;;6205522;28;83317;-71
2021/10/12 01:01:02;;;;;;;41.83;24.35;;;24.30;37.90;;;;;;6189831;28;83028;-71
2021/10/12 01:04:02;;;;;;;39.25;23.90;;;24.30;37.70;;;;;;6206583;28;83058;-71
2021/10/12 01:07:03;;;;;;;42.72;25.33;;;24.30;38.20;;;;;;6207838;28;87008;-73
2021/10/12 01:10:03;;;;;;;43.28;24.98;;;24.30;37.90;;;;;;6212819;28;85590;-73
2021/10/12 01:13:04;;;;;;;39.55;23.90;;;24.20;38.10;;;;;;6206442;28;83458;-72
2021/10/12 01:16:04;;;;;;;46.85;25.25;;;24.20;38.00;;;;;;6189102;28;85996;-72
2021/10/12 01:19:05;;;;;;;40.42;24.27;;;24.20;38.10;;;;;;6204212;28;83260;-72
2021/10/12 01:22:05;;;;;;;42.25;25.17;;;24.20;38.30;;;;;;6206062;28;83107;-72
2021/10/12 01:25:06;;;;;;;38.28;23.23;;;24.30;38.30;;;;;;6206254;28;84472;-73
2021/10/12 01:28:08;;;;;;;40.97;23.70;;;24.20;38.00;;;;;;6203936;28;83554;-73
2021/10/12 01:31:09;;;;;;;37.05;22.67;;;24.20;38.20;;;;;;6205631;28;82869;-72
2021/10/12 01:34:09;;;;;;;38.97;23.23;;;24.20;38.10;;;;;;6205611;28;83478;-71
2021/10/12 01:37:10;;;;;;;39.70;23.05;;;24.20;38.50;;;;;;6205102;28;82929;-71
2021/10/12 01:40:10;;;;;;;37.75;22.05;;;24.20;38.20;;;;;;6205500;28;83616;-71
2021/10/12 01:43:11;;;;;;;34.97;22.25;;;24.20;38.80;;;;;;6204327;28;83455;-71
2021/10/12 01:46:11;;;;;;;37.53;22.65;;;24.20;38.50;;;;;;6206176;28;83884;-72
2021/10/12 01:49:12;;;;;;;35.80;22.08;;;24.20;38.60;;;;;;6203336;28;83179;-72
2021/10/12 01:52:13;;;;;;;37.20;21.60;;;24.20;38.70;;;;;;6187598;28;83233;-72
2021/10/12 01:55:13;;;;;;;37.15;22.27;;;24.20;38.50;;;;;;6203918;28;83552;-72
2021/10/12 01:58:14;;;;;;;38.08;22.38;;;24.20;38.70;;;;;;6205437;28;83226;-72
2021/10/12 02:01:14;;;;;;;35.75;21.85;;;24.20;38.60;;;;;;6203677;28;83127;-72
2021/10/12 02:04:15;;;;;;;34.90;21.80;;;24.20;38.40;;;;;;6204138;28;83297;-70
2021/10/12 02:07:15;;;;;;;34.20;22.08;;;24.20;38.40;;;;;;6204432;28;83031;-70
2021/10/12 02:10:16;;;;;;;36.45;22.77;;;24.20;38.20;;;;;;6203980;28;83450;-70
2021/10/12 02:13:16;;;;;;;36.22;22.15;;;24.20;38.30;;;;;;6204771;28;86051;-70
2021/10/12 02:16:17;;;;;;;36.28;22.80;;;24.20;38.40;;;;;;6204879;28;83881;-70
2021/10/12 02:19:17;;;;;;;35.72;22.73;;;24.20;38.30;;;;;;6199887;28;84022;-70
2021/10/12 02:22:17;;;;;;;33.65;21.63;;;24.20;38.30;;;;;;6203934;28;83798;-72
2021/10/12 02:25:18;;;;;;;34.65;21.45;;;24.20;38.20;;;;;;6205110;28;82981;-71
2021/10/12 02:28:18;;;;;;;37.17;21.77;;;24.20;38.30;;;;;;6201939;28;83821;-72
2021/10/12 02:31:19;;;;;;;36.45;22.67;;;24.30;38.00;;;;;;6203534;28;83505;-71
2021/10/12 02:34:19;;;;;;;34.58;21.30;;;24.20;37.90;;;;;;6203404;28;83381;-72
2021/10/12 02:37:20;;;;;;;33.05;19.98;;;24.20;38.10;;;;;;6204143;28;83950;-71
2021/10/12 02:40:20;;;;;;;32.95;20.65;;;24.20;38.20;;;;;;6203634;28;83674;-71
2021/10/12 02:43:21;;;;;;;37.10;21.02;;;24.20;38.20;;;;;;6190171;28;83199;-71
2021/10/12 02:46:21;;;;;;;31.90;20.55;;;24.30;38.30;;;;;;6203735;28;83064;-72
2021/10/12 02:49:22;;;;;;;32.22;20.15;;;24.30;38.40;;;;;;6203615;28;89032;-72
2021/10/12 02:52:22;;;;;;;29.75;18.33;;;24.30;38.50;;;;;;6202582;28;84082;-73
2021/10/12 02:55:23;;;;;;;32.90;19.80;;;24.30;38.50;;;;;;6202557;28;83512;-74
2021/10/12 02:58:23;;;;;;;28.45;18.50;;;24.30;38.60;;;;;;6204373;28;83180;-72
2021/10/12 03:01:24;;;;;;;28.45;17.80;;;24.30;38.60;;;;;;6202325;28;83174;-73
2021/10/12 03:04:25;;;;;;;31.80;18.85;;;24.30;38.70;;;;;;6187760;28;84658;-71
2021/10/12 03:07:25;;;;;;;28.92;17.35;;;24.30;38.70;;;;;;6202637;28;83071;-73
2021/10/12 03:10:26;;;;;;;29.33;17.20;;;24.30;38.70;;;;;;6203261;28;84053;-72
2021/10/12 03:13:26;;;;;;;26.90;16.58;;;24.30;38.70;;;;;;6203823;28;83350;-72
2021/10/12 03:16:27;;;;;;;26.13;17.13;;;24.40;38.80;;;;;;6207388;28;84600;-72
2021/10/12 03:19:27;;;;;;;26.05;16.38;;;24.30;38.80;;;;;;6203292;28;83338;-73
2021/10/12 03:22:28;;;;;;;27.92;16.80;;;24.40;38.90;;;;;;6203455;28;83052;-72
2021/10/12 03:25:28;;;;;;;26.95;16.55;;;24.40;38.90;;;;;;6203174;28;83483;-71
2021/10/12 03:28:29;;;;;;;24.65;15.48;;;24.40;39.00;;;;;;6203092;28;84212;-72
2021/10/12 03:31:29;;;;;;;21.30;14.68;;;24.40;39.00;;;;;;6201507;28;83749;-72
2021/10/12 03:34:30;;;;;;;24.45;14.88;;;24.40;39.00;;;;;;6203789;28;82900;-71
2021/10/12 03:37:30;;;;;;;24.10;15.02;;;24.40;39.00;;;;;;6202373;28;82982;-71
2021/10/12 03:40:31;;;;;;;22.67;14.18;;;24.40;39.10;;;;;;6192759;28;84192;-71
2021/10/12 03:43:31;;;;;;;21.58;14.52;;;24.40;39.00;;;;;;6213937;28;84139;-74
2021/10/12 03:46:32;;;;;;;21.30;13.27;;;24.40;39.10;;;;;;6203560;28;83807;-75
2021/10/12 03:49:32;;;;;;;22.40;14.38;;;24.50;39.20;;;;;;6203257;28;84097;-73
2021/10/12 03:52:33;;;;;;;20.13;13.70;;;24.40;39.20;;;;;;6202802;28;83741;-75
2021/10/12 03:55:33;;;;;;;21.20;13.63;;;24.40;39.20;;;;;;6203270;28;83022;-73
2021/10/12 03:58:34;;;;;;;23.52;13.95;;;24.40;39.20;;;;;;6201992;28;83229;-76
2021/10/12 04:01:34;;;;;;;20.95;13.10;;;24.50;39.20;;;;;;6203645;28;83116;-74
2021/10/12 04:04:35;;;;;;;23.52;13.65;;;24.50;39.20;;;;;;6201702;28;86724;-76
2021/10/12 04:07:35;;;;;;;22.92;12.50;;;24.50;39.60;;;;;;6202939;28;83137;-75
2021/10/12 04:10:36;;;;;;;28.92;13.40;;;24.50;39.70;;;;;;6205476;28;83357;-70
2021/10/12 04:13:36;;;;;;;24.77;13.00;;;24.60;39.70;;;;;;6202187;28;83888;-76
2021/10/12 04:16:37;;;;;;;20.88;12.48;;;24.50;39.70;;;;;;6202490;28;83123;-69
2021/10/12 04:19:37;;;;;;;27.10;12.70;;;24.50;39.70;;;;;;6202232;28;83365;-68
2021/10/12 04:22:38;;;;;;;25.50;14.07;;;24.50;39.70;;;;;;6201952;28;83303;-74
2021/10/12 04:25:39;;;;;;;19.35;12.10;;;24.60;39.70;;;;;;6202263;28;83549;-77
2021/10/12 04:28:40;;;;;;;19.30;12.30;;;24.50;39.70;;;;;;6203009;28;83082;-77
2021/10/12 04:31:40;;;;;;;21.00;12.18;;;24.60;39.60;;;;;;6201652;28;83561;-76
2021/10/12 04:34:41;;;;;;;20.35;11.93;;;24.60;40.10;;;;;;6187173;28;83484;-74
2021/10/12 04:37:42;;;;;;;19.67;11.63;;;24.60;40.00;;;;;;6202809;28;83234;-76
2021/10/12 04:40:42;;;;;;;17.80;10.95;;;24.60;39.70;;;;;;6201720;28;83922;-76
2021/10/12 04:43:43;;;;;;;18.95;12.00;;;24.60;39.60;;;;;;6202209;28;83214;-76
2021/10/12 04:46:43;;;;;;;15.93;10.75;;;24.60;39.50;;;;;;6202362;28;83066;-76
2021/10/12 04:49:44;;;;;;;18.77;11.38;;;24.60;39.40;;;;;;6198163;28;83132;-70
2021/10/12 04:52:45;;;;;;;22.20;10.98;;;24.60;39.50;;;;;;6193905;28;86273;-77
2021/10/12 04:55:45;;;;;;;18.77;11.05;;;24.50;39.40;;;;;;6202961;28;82852;-73
2021/10/12 04:58:46;;;;;;;17.38;10.18;;;24.50;39.40;;;;;;6201281;28;83335;-77
2021/10/12 05:01:46;;;;;;;18.15;10.63;;;24.50;39.90;;;;;;6201241;28;83262;-76
2021/10/12 05:04:47;;;;;;;17.08;9.57;;;24.50;40.40;;;;;;6201473;28;83153;-74
2021/10/12 05:07:47;;;;;;;16.30;10.27;;;24.50;40.80;;;;;;6203988;28;82959;-74
2021/10/12 05:10:49;;;;;;;18.05;10.18;;;24.40;40.90;;;;;;6201642;28;83305;-74
2021/10/12 05:13:51;;;;;;;14.98;9.82;;;24.40;41.20;;;;;;6201781;28;85477;-73
2021/10/12 05:16:54;;;;;;;15.25;9.55;;;24.40;41.30;;;;;;6209401;28;83015;-74
2021/10/12 05:19:55;;;;;;;17.85;10.00;;;24.40;41.40;;;;;;6205035;28;83080;-74
2021/10/12 05:22:56;;;;;;;15.05;9.52;;;24.50;41.30;;;;;;6188358;28;87359;-73
2021/10/12 05:25:58;;;;;;;14.75;9.63;;;24.40;41.10;;;;;;6191303;28;82977;-74
2021/10/12 05:28:59;;;;;;;17.48;9.20;;;24.50;41.10;;;;;;6206722;28;80869;-75
2021/10/12 05:31:59;;;;;;;24.20;10.10;;;24.50;41.20;;;;;;6211635;28;80912;-73
2021/10/12 05:35:00;;;;;;;13.15;9.02;;;24.60;41.70;;;;;;6205691;28;83396;-74
2021/10/12 05:38:00;;;;;;;15.70;8.43;;;24.60;40.90;;;;;;6210180;27;82832;-77
2021/10/12 05:41:01;;;;;;;11.93;8.63;;;24.50;40.60;;;;;;6208406;28;80804;-70
2021/10/12 05:44:01;;;;;;;14.65;8.80;;;24.50;40.60;;;;;;6208066;28;80822;-78
2021/10/12 05:47:02;;;;;;;13.20;8.15;;;24.50;40.50;;;;;;6206789;27;80620;-73
2021/10/12 05:50:02;;;;;;;12.15;8.18;;;24.50;40.40;;;;;;6204854;27;80313;-70
2021/10/12 05:53:25;;;;;;;11.50;8.10;;;24.50;40.30;;;;;;6207385;28;81427;-72
2021/10/12 05:59:26;;;;;;;13.75;8.38;;;24.50;40.20;;;;;;6208754;27;83037;-72
2021/10/12 06:02:27;;;;;;;13.07;8.68;;;24.50;40.00;;;;;;6191371;28;81720;-78
2021/10/12 06:05:27;;;;;;;15.35;8.10;;;24.50;40.00;;;;;;6208513;28;81520;-75
2021/10/12 06:08:30;;;;;;;14.50;8.30;;;24.50;40.00;;;;;;6189065;28;80545;-77
2021/10/12 06:11:30;;;;;;;12.70;8.13;;;24.50;39.90;;;;;;6203721;28;81448;-72
2021/10/12 06:14:31;;;;;;;11.50;7.70;;;24.50;40.10;;;;;;6209177;28;82771;-73
2021/10/12 06:17:32;;;;;;;13.60;7.90;;;24.50;40.10;;;;;;6208808;28;80966;-73
2021/10/12 06:20:32;;;;;;;15.25;7.43;;;24.50;40.10;;;;;;6207858;28;80375;-71
2021/10/12 06:23:33;;;;;;;10.60;7.50;;;24.50;40.20;;;;;;6206227;27;81240;-73
2021/10/12 06:26:33;;;;;;;22.48;6.95;;;24.50;40.30;;;;;;6189272;28;81589;-72
2021/10/12 06:29:34;;;;;;;10.13;6.80;;;24.40;40.30;;;;;;6208995;27;80554;-73
2021/10/12 06:32:34;;;;;;;11.13;6.88;;;24.40;40.50;;;;;;6190817;28;80714;-72
2021/10/12 06:35:35;;;;;;;13.85;7.38;;;24.50;40.70;;;;;;6217516;28;80257;-71
2021/10/12 06:38:35;;;;;;;12.43;7.15;;;24.40;40.90;;;;;;6214559;28;80088;-76
2021/10/12 06:41:36;;;;;;;14.70;7.32;;;24.40;40.50;;;;;;6196739;28;80463;-70
2021/10/12 06:44:36;;;;;;;10.88;6.78;;;24.40;40.60;;;;;;6207265;27;81140;-74
2021/10/12 06:47:37;;;;;;;13.52;7.53;;;24.50;41.10;;;;;;6207403;28;80580;-71
2021/10/12 06:50:37;;;;;;;10.07;7.10;;;24.50;40.90;;;;;;6207070;28;80603;-72
2021/10/12 06:53:43;;;;;;;14.02;7.82;;;24.50;41.50;;;;;;6206206;28;81980;-74
2021/10/12 06:56:43;;;;;;;12.50;6.93;;;24.40;41.10;;;;;;6206076;28;81846;-72
2021/10/12 06:59:44;;;;;;;11.15;7.43;;;24.50;41.00;;;;;;6206238;27;80974;-74
2021/10/12 07:02:44;;;;;;;10.68;6.63;;;24.40;40.80;;;;;;6205774;28;80727;-72
2021/10/12 07:05:45;;;;;;;11.00;7.07;;;24.40;40.90;;;;;;6209878;28;80489;-76
2021/10/12 07:08:45;;;;;;;10.23;6.60;;;24.40;41.00;;;;;;6197286;28;81757;-75
2021/10/12 07:11:46;;;;;;;13.18;6.90;;;24.40;41.60;;;;;;6183894;28;84164;-73
2021/10/12 07:14:46;;;;;;;9.45;6.88;;;24.40;42.10;;;;;;6208596;28;80526;-73
2021/10/12 07:17:47;;;;;;;10.25;5.82;;;24.40;41.80;;;;;;6203285;28;83355;-73
2021/10/12 07:20:47;;;;;;;11.05;6.32;;;24.40;42.70;;;;;;6202792;28;80197;-72
2021/10/12 07:23:48;;;;;;;9.32;6.32;;;24.40;43.50;;;;;;6207419;28;80878;-75
2021/10/12 07:26:48;;;;;;;9.77;6.20;;;24.40;43.50;;;;;;6206534;28;80045;-74
2021/10/12 07:29:51;;;;;;;11.70;6.35;;;24.40;42.70;;;;;;6205117;28;80983;-75
2021/10/12 07:32:51;;;;;;;12.45;6.72;;;24.40;42.80;;;;;;6207426;28;81367;-76
2021/10/12 07:35:52;;;;;;;11.25;6.63;;;24.40;42.50;;;;;;6204495;28;81053;-75
2021/10/12 07:38:52;;;;;;;18.55;7.90;;;24.40;43.10;;;;;;6206466;28;80607;-78
2021/10/12 07:41:53;;;;;;;222.05;83.15;;;24.40;43.20;;;;;;6208062;28;80563;-75
2021/10/12 07:44:54;;;;;;;181.38;70.43;;;24.40;43.80;;;;;;6204637;28;83115;-73
2021/10/12 07:47:56;;;;;;;139.85;56.08;;;24.50;43.10;;;;;;6202648;28;84726;-75
2021/10/12 07:50:56;;;;;;;112.32;47.58;;;24.50;42.90;;;;;;6204965;28;84080;-76
2021/10/12 07:54:00;;;;;;;124.03;47.53;;;24.50;43.00;;;;;;6203981;28;83575;-75
2021/10/12 07:57:00;;;;;;;118.13;46.67;;;24.50;42.70;;;;;;6202976;28;83088;-75
2021/10/12 08:00:01;;;;;;;92.95;37.53;;;24.50;42.60;;;;;;6201891;28;83118;-74
2021/10/12 08:03:13;;;;;;;87.30;34.20;;;24.50;42.60;;;;;;6201743;28;83049;-78
2021/10/12 08:06:13;;;;;;;72.13;33.13;;;24.50;42.30;;;;;;6202961;28;83220;-75
2021/10/12 08:09:15;;;;;;;67.15;29.48;;;24.50;42.20;;;;;;6202390;28;84193;-76
2021/10/12 08:12:16;;;;;;;68.57;27.80;;;24.40;41.90;;;;;;6189139;28;83698;-80
2021/10/12 08:15:16;;;;;;;52.65;22.90;;;24.40;41.60;;;;;;6203999;28;83179;-79
2021/10/12 08:18:18;;;;;;;39.25;19.33;;;24.40;41.60;;;;;;6202661;28;83108;-77
2021/10/12 08:21:18;;;;;;;41.75;20.40;;;24.30;41.60;;;;;;6202787;28;84119;-78
2021/10/12 08:24:20;;;;;;;42.25;18.05;;;24.30;41.10;;;;;;6206994;28;84482;-75
2021/10/12 08:27:21;;;;;;;38.00;18.15;;;24.30;41.80;;;;;;6189326;28;83185;-77
2021/10/12 08:30:21;;;;;;;36.13;16.92;;;24.40;41.50;;;;;;6202410;28;83731;-77
2021/10/12 08:33:22;;;;;;;34.08;15.82;;;24.40;41.40;;;;;;6201051;28;83247;-77
2021/10/12 08:36:22;;;;;;;33.40;15.95;;;24.40;41.60;;;;;;6186167;28;82954;-78
2021/10/12 08:39:29;;;;;;;34.03;14.00;;;24.40;41.60;;;;;;6202293;27;83448;-77
2021/10/12 08:42:30;;;;;;;29.20;14.90;;;24.40;41.70;;;;;;6190844;28;85807;-80
2021/10/12 08:45:31;;;;;;;28.20;15.10;;;24.40;41.80;;;;;;6200823;28;86259;-80
2021/10/12 08:48:32;;;;;;;28.70;12.90;;;24.40;41.90;;;;;;6200547;28;83391;-78
2021/10/12 08:51:32;;;;;;;24.70;12.35;;;24.40;41.90;;;;;;6201747;28;83057;-79
2021/10/12 08:54:33;;;;;;;23.55;11.95;;;24.40;42.30;;;;;;6206051;28;84286;-80
2021/10/12 08:57:34;;;;;;;19.48;11.45;;;24.40;41.70;;;;;;6204082;28;83074;-78
2021/10/12 09:00:35;;;;;;;24.80;11.23;;;24.30;41.80;;;;;;6161911;28;83267;-79
2021/10/12 09:03:39;;;;;;;20.67;11.30;;;24.40;41.80;;;;;;6205260;28;83744;-74
2021/10/12 09:06:40;;;;;;;20.20;10.45;;;24.40;41.70;;;;;;6206328;28;83091;-74
2021/10/12 09:09:40;;;;;;;24.83;11.18;;;24.40;41.70;;;;;;6204109;28;83720;-75
2021/10/12 09:12:41;;;;;;;15.10;9.90;;;24.40;42.30;;;;;;6205290;28;83311;-76
2021/10/12 09:15:41;;;;;;;22.58;9.85;;;24.40;41.90;;;;;;6209586;28;83594;-75
2021/10/12 09:18:42;;;;;;;20.75;9.75;;;24.40;41.90;;;;;;6207457;28;80532;-75
2021/10/12 09:21:43;;;;;;;17.65;9.60;;;24.40;41.80;;;;;;6207715;28;80539;-75
2021/10/12 09:24:45;;;;;;;16.65;9.55;;;24.40;41.80;;;;;;6208771;28;80644;-71
2021/10/12 09:27:51;;;;;;;18.38;9.95;;;24.40;41.80;;;;;;6208494;28;81819;-76
2021/10/12 09:30:52;;;;;;;14.57;8.88;;;24.40;41.80;;;;;;6209405;28;80767;-73
2021/10/12 09:33:52;;;;;;;16.98;9.07;;;24.40;41.70;;;;;;6208618;28;80716;-74
2021/10/12 09:36:54;;;;;;;15.73;8.38;;;24.40;42.00;;;;;;6210792;28;82082;-80
2021/10/12 09:39:55;;;;;;;18.92;9.38;;;24.40;41.80;;;;;;6207644;28;80595;-75
2021/10/12 09:42:55;;;;;;;17.20;8.93;;;24.40;41.70;;;;;;6187182;28;83541;-75
2021/10/12 09:45:56;;;;;;;14.98;8.52;;;24.40;41.70;;;;;;6194961;28;87469;-74
2021/10/12 09:48:56;;;;;;;16.35;9.88;;;24.40;40.80;;;;;;6195590;28;80515;-74
2021/10/12 09:51:57;;;;;;;16.48;9.15;;;24.30;40.30;;;;;;6205980;28;81002;-75
2021/10/12 09:54:57;;;;;;;14.90;8.95;;;24.30;40.30;;;;;;6206453;28;80351;-78
2021/10/12 09:57:58;;;;;;;13.85;9.70;;;24.30;40.10;;;;;;6208438;28;80462;-79
2021/10/12 10:00:59;;;;;;;15.55;9.93;;;24.30;39.90;;;;;;6206373;28;80368;-74
2021/10/12 10:03:59;;;;;;;15.35;9.50;;;24.20;39.80;;;;;;6206808;28;80627;-75
2021/10/12 10:07:00;;;;;;;13.85;9.27;;;24.20;39.90;;;;;;6208144;28;80296;-76
2021/10/12 10:10:00;;;;;;;15.68;9.05;;;24.20;39.80;;;;;;6207662;28;80791;-76
2021/10/12 10:13:01;;;;;;;14.63;9.07;;;24.20;39.80;;;;;;6195767;28;82580;-75
2021/10/12 10:16:02;;;;;;;17.13;9.68;;;24.20;39.60;;;;;;6207364;28;81247;-74
2021/10/12 10:19:02;;;;;;;19.88;12.30;;;24.20;39.80;;;;;;6190413;28;82002;-73
2021/10/12 10:22:03;;;;;;;36.60;19.88;;;24.20;40.00;;;;;;6194516;28;83288;-73
2021/10/12 10:25:04;;;;;;;37.10;19.95;;;24.20;40.10;;;;;;6202262;28;83056;-76
2021/10/12 10:28:04;;;;;;;35.08;22.00;;;24.20;40.20;;;;;;6189079;28;83221;-75
2021/10/12 10:31:05;;;;;;;37.83;22.95;;;24.10;40.20;;;;;;6202223;28;83757;-77
2021/10/12 10:34:06;;;;;;;33.63;20.33;;;24.20;40.50;;;;;;6188065;28;86289;-76
2021/10/12 10:37:06;;;;;;;30.98;20.10;;;24.20;40.40;;;;;;6207401;28;84000;-77
2021/10/12 10:40:07;;;;;;;28.25;17.50;;;24.30;40.50;;;;;;6208034;28;83516;-76
2021/10/12 10:43:08;;;;;;;28.63;17.30;;;24.30;40.50;;;;;;6173877;28;83295;-75
2021/10/12 10:46:08;;;;;;;25.67;14.85;;;24.40;40.50;;;;;;6196500;28;88319;-73
2021/10/12 10:49:09;;;;;;;21.50;13.50;;;24.40;40.30;;;;;;6181624;27;84689;-75
2021/10/12 10:52:10;;;;;;;22.27;12.35;;;24.40;40.00;;;;;;6204489;28;84218;-76
2021/10/12 10:55:10;;;;;;;20.30;11.60;;;24.40;39.30;;;;;;6205793;27;83251;-77
2021/10/12 10:58:11;;;;;;;16.73;9.40;;;24.40;38.90;;;;;;6204721;28;83316;-79
2021/10/12 11:01:11;;;;;;;15.90;9.18;;;24.40;38.80;;;;;;6207254;28;84192;-74
2021/10/12 11:04:12;;;;;;;21.95;9.90;;;24.40;38.80;;;;;;6193318;28;80532;-67
2021/10/12 11:07:12;;;;;;;12.75;7.75;;;24.40;38.20;;;;;;6206280;28;81447;-67
2021/10/12 11:10:13;;;;;;;14.43;8.48;;;24.40;38.50;;;;;;6205407;28;80594;-68
2021/10/12 11:13:13;;;;;;;15.90;7.32;;;24.40;38.10;;;;;;6205181;28;81483;-67
2021/10/12 11:16:14;;;;;;;13.48;7.45;;;24.40;37.90;;;;;;6206660;28;80454;-69
2021/10/12 11:19:14;;;;;;;10.45;6.15;;;24.40;38.00;;;;;;6206387;28;80764;-69
2021/10/12 11:22:15;;;;;;;17.23;6.20;;;24.40;37.70;;;;;;6175721;28;80343;-71
2021/10/12 11:25:15;;;;;;;11.10;5.68;;;24.40;37.30;;;;;;6188247;28;80229;-71
2021/10/12 11:28:17;;;;;;;9.93;5.40;;;24.50;37.10;;;;;;6208596;28;80907;-71
2021/10/12 11:31:18;;;;;;;13.07;5.55;;;24.50;37.80;;;;;;6205547;28;80587;-69
2021/10/12 11:34:18;;;;;;;9.18;4.72;;;24.50;37.60;;;;;;6203973;28;81581;-69
2021/10/12 11:37:19;;;;;;;13.05;5.32;;;24.50;37.80;;;;;;6186980;28;80164;-70
2021/10/12 11:40:21;;;;;;;13.60;7.90;;;24.50;37.80;;;;;;6206719;28;80836;-70
2021/10/12 11:43:21;;;;;;;30.52;10.88;;;24.60;38.80;;;;;;6205630;28;80484;-69
2021/10/12 11:46:22;;;;;;;14.55;6.43;;;24.60;39.90;;;;;;6202106;28;83503;-70
2021/10/12 11:49:25;;;;;;;11.35;5.32;;;24.60;38.40;;;;;;6205458;28;83034;-70
2021/10/12 11:52:26;;;;;;;13.07;4.82;;;24.70;37.70;;;;;;6203499;28;82267;-72
2021/10/12 11:55:27;;;;;;;13.80;5.45;;;24.70;36.80;;;;;;6202344;28;80810;-68
2021/10/12 11:58:27;;;;;;;11.80;5.07;;;24.70;36.70;;;;;;6206401;28;80771;-69
2021/10/12 12:01:28;;;;;;;12.82;4.45;;;24.70;36.30;;;;;;6190636;28;81642;-68
2021/10/12 12:04:28;;;;;;;8.20;4.57;;;24.70;36.40;;;;;;6205052;28;80286;-69
2021/10/12 12:07:29;;;;;;;7.05;3.90;;;24.80;36.30;;;;;;6205407;28;80894;-69
2021/10/12 12:10:29;;;;;;;6.07;3.80;;;24.80;35.80;;;;;;6187944;28;81930;-68
2021/10/12 12:13:31;;;;;;;8.65;3.10;;;24.90;35.70;;;;;;6204427;28;81551;-69
2021/10/12 12:16:33;;;;;;;7.05;3.53;;;24.90;35.30;;;;;;6204607;28;81765;-70
2021/10/12 12:19:34;;;;;;;5.10;2.88;;;24.90;35.50;;;;;;6205162;28;80508;-70
2021/10/12 12:22:34;;;;;;;5.53;3.53;;;24.90;35.10;;;;;;6205300;28;80470;-69
2021/10/12 12:25:35;;;;;;;6.72;2.90;;;24.90;35.70;;;;;;6203350;28;80305;-69
2021/10/12 12:28:35;;;;;;;14.52;6.13;;;24.90;35.60;;;;;;6205688;28;80678;-69
2021/10/12 12:31:36;;;;;;;7.35;3.55;;;25.00;38.90;;;;;;6204933;28;80690;-70
2021/10/12 12:34:38;;;;;;;5.78;3.40;;;25.00;36.80;;;;;;6205187;28;80570;-72
2021/10/12 12:37:39;;;;;;;8.10;3.20;;;25.00;36.60;;;;;;6205245;28;80189;-75
2021/10/12 12:40:39;;;;;;;8.18;3.13;;;25.00;36.00;;;;;;6205142;28;81188;-67
2021/10/12 12:43:40;;;;;;;6.05;3.28;;;25.00;35.30;;;;;;6205351;28;81000;-68
2021/10/12 12:46:40;;;;;;;6.30;2.83;;;25.00;34.40;;;;;;6205353;28;80959;-69
2021/10/12 12:49:41;;;;;;;7.75;2.75;;;25.00;33.50;;;;;;6202978;28;80652;-67
2021/10/12 12:52:41;;;;;;;4.63;2.38;;;25.00;33.70;;;;;;6178205;28;82100;-69
2021/10/12 12:55:42;;;;;;;7.50;2.60;;;25.00;33.70;;;;;;6187855;28;82314;-68
2021/10/12 12:58:44;;;;;;;5.10;2.72;;;25.00;34.00;;;;;;6204448;28;81112;-68
2021/10/12 13:01:45;;;;;;;7.53;2.90;;;25.00;33.40;;;;;;6205057;28;80351;-69
2021/10/12 13:04:45;;;;;;;6.22;2.95;;;25.00;33.60;;;;;;6203930;28;80542;-68
2021/10/12 13:07:46;;;;;;;5.32;2.95;;;25.00;33.90;;;;;;6203852;28;81181;-69
2021/10/12 13:10:46;;;;;;;3.40;2.33;;;25.00;33.30;;;;;;6188647;28;83556;-70
2021/10/12 13:13:47;;;;;;;4.53;2.83;;;25.00;32.50;;;;;;6204282;28;80935;-70
2021/10/12 13:16:48;;;;;;;6.07;3.05;;;24.90;32.70;;;;;;6204832;28;80272;-69
2021/10/12 13:19:48;;;;;;;3.10;2.20;;;24.90;32.40;;;;;;6205868;28;80401;-72
2021/10/12 13:22:49;;;;;;;3.85;2.53;;;24.80;32.30;;;;;;6203802;28;80167;-72
2021/10/12 13:25:49;;;;;;;6.05;2.60;;;24.90;32.50;;;;;;6203437;28;80865;-72
2021/10/12 13:28:50;;;;;;;5.00;2.45;;;24.90;33.20;;;;;;6202652;28;82174;-72
2021/10/12 13:31:51;;;;;;;8.02;2.65;;;24.80;33.20;;;;;;6201917;28;80543;-69
2021/10/12 13:34:53;;;;;;;5.78;2.75;;;24.80;33.60;;;;;;6203704;28;86326;-73
2021/10/12 13:37:54;;;;;;;6.28;2.55;;;24.80;33.50;;;;;;6208994;28;81534;-72
2021/10/12 13:40:55;;;;;;;11.13;3.58;;;24.70;33.20;;;;;;6208705;27;80977;-72
2021/10/12 13:43:56;;;;;;;5.80;3.22;;;24.70;32.80;;;;;;6207457;28;82117;-74
2021/10/12 13:46:56;;;;;;;4.32;2.78;;;24.70;32.60;;;;;;6209135;28;80964;-75
2021/10/12 13:49:57;;;;;;;9.48;2.85;;;24.70;32.40;;;;;;6207811;28;80471;-72
2021/10/12 13:52:57;;;;;;;5.78;3.05;;;24.60;32.40;;;;;;6197270;28;83969;-73
2021/10/12 13:55:58;;;;;;;6.40;2.88;;;24.60;32.50;;;;;;6210243;28;80963;-75
2021/10/12 13:59:01;;;;;;;4.13;2.70;;;24.60;32.60;;;;;;6205967;28;80947;-73
2021/10/12 14:02:01;;;;;;;5.25;2.72;;;24.60;33.30;;;;;;6193320;28;80818;-74
2021/10/12 14:05:02;;;;;;;3.65;2.30;;;24.70;33.90;;;;;;6203485;28;80459;-74
2021/10/12 14:08:03;;;;;;;3.72;2.42;;;24.70;34.30;;;;;;6190202;28;83612;-72
2021/10/12 14:11:04;;;;;;;4.97;2.58;;;24.70;34.80;;;;;;6210886;28;80726;-72
2021/10/12 14:14:04;;;;;;;5.82;2.58;;;24.60;35.00;;;;;;6209604;28;80632;-77
2021/10/12 14:17:05;;;;;;;7.40;3.08;;;24.70;35.40;;;;;;6207484;28;81027;-75
2021/10/12 14:20:05;;;;;;;6.57;2.65;;;24.70;35.60;;;;;;6202891;28;81625;-74
2021/10/12 14:23:06;;;;;;;6.95;2.53;;;24.70;35.90;;;;;;6203893;28;80886;-69
2021/10/12 14:26:06;;;;;;;5.70;2.85;;;24.70;36.00;;;;;;6206012;28;80670;-73
2021/10/12 14:29:07;;;;;;;7.82;2.72;;;24.80;36.30;;;;;;6204460;28;80700;-72
2021/10/12 14:32:07;;;;;;;4.82;2.50;;;24.80;36.30;;;;;;6205250;27;81297;-72
2021/10/12 14:35:08;;;;;;;5.90;3.00;;;24.90;36.40;;;;;;6206238;28;80974;-71
2021/10/12 14:38:08;;;;;;;3.75;2.40;;;24.80;36.40;;;;;;6193695;28;86580;-72
2021/10/12 14:41:09;;;;;;;3.40;2.47;;;24.80;36.50;;;;;;6202899;28;80477;-72
2021/10/12 14:47:10;;;;;;;4.97;2.57;;;24.90;36.80;;;;;;6199644;28;98259;-73
2021/10/12 14:50:13;;;;;;;5.68;2.50;;;24.90;36.80;;;;;;6185336;28;81259;-75
2021/10/12 14:53:14;;;;;;;9.02;2.60;;;24.90;36.90;;;;;;6193757;28;80260;-74
2021/10/12 14:56:14;;;;;;;4.93;2.75;;;24.90;36.80;;;;;;6187381;28;81299;-75
2021/10/12 14:59:15;;;;;;;4.47;2.33;;;24.90;37.20;;;;;;6194416;28;80914;-67
2021/10/12 15:02:15;;;;;;;3.85;2.25;;;24.90;37.00;;;;;;6202300;28;80834;-67
2021/10/12 15:05:16;;;;;;;6.95;2.53;;;24.90;37.00;;;;;;6206532;28;81438;-72
2021/10/12 15:08:17;;;;;;;5.22;2.58;;;24.90;37.30;;;;;;6207110;28;80526;-72
2021/10/12 15:11:17;;;;;;;7.45;2.60;;;24.90;37.30;;;;;;6205168;28;80545;-72
2021/10/12 15:14:18;;;;;;;5.20;2.47;;;24.80;37.20;;;;;;6208087;28;80637;-72
2021/10/12 15:17:19;;;;;;;3.65;2.20;;;24.80;37.20;;;;;;6206672;28;80055;-71
2021/10/12 15:20:20;;;;;;;4.43;2.55;;;24.80;37.20;;;;;;6209959;28;80507;-72
2021/10/12 15:23:20;;;;;;;7.15;3.08;;;24.80;37.40;;;;;;6209539;28;81212;-72
2021/10/12 15:26:21;;;;;;;5.90;2.50;;;24.80;37.40;;;;;;6209912;28;81385;-71
2021/10/12 15:29:21;;;;;;;5.07;2.80;;;24.80;37.60;;;;;;6202821;28;81119;-71